Burke, South Dakota
Current Conditions -  °F | °C
As of 2:53 PM on Saturday 25 Oct 2014 (Local Time) from KICR Reporting Station
Clear Clear  
Wind Chill: 70°   Ceiling: Unl
Heat Index: 70°   Visibility: 10mi
Dew Point: 26°   Wind: 12mph
Humidity: 19%   Direction: 130°SE
Pressure: 30.09"   Gusts: NA
Location:  43.18°N, 99.29°W
Report Text: KICR 251953Z AUTO 13010KT 10SM CLR 21/M03 A3009 RMK AO2 SLP185 T02111033 $
Loading
Personal Weather Stations






























Interactive Weather Map
Tropical Storm Tracking
New forecast layout! Learn more

10-Day Weather Forecast

Advertisements
Track Severe Weather on mobile